Time;durP1;ratioP1;P1;durP2;ratioP2;P2;SDS_P1;SDS_P2;PMS_P1;PMS_P2;Temp;Humidity;BMP_temperature;BMP_pressure;BME280_temperature;BME280_humidity;BME280_pressure;Samples;Min_cycle;Max_cycle;Signal;HPM_P1;HPM_P2
2023/03/28 00:00:10;;;;;;;24.95;3.42;;;3.00;99.90;;;;;;5031748;28;20078;-80
2023/03/28 00:02:36;;;;;;;19.38;3.10;;;3.00;99.90;;;;;;5029125;28;20688;-82
2023/03/28 00:05:03;;;;;;;21.83;3.28;;;3.00;99.90;;;;;;5035416;28;20039;-83
2023/03/28 00:07:29;;;;;;;21.10;2.80;;;2.90;99.90;;;;;;5028458;28;20083;-80
2023/03/28 00:09:56;;;;;;;10.98;2.63;;;2.90;99.90;;;;;;5031822;28;20108;-83
2023/03/28 00:12:22;;;;;;;21.45;3.22;;;2.90;99.90;;;;;;5035827;28;20610;-84
2023/03/28 00:14:48;;;;;;;24.90;3.65;;;2.80;99.90;;;;;;5032932;28;20025;-84
2023/03/28 00:17:16;;;;;;;23.45;4.20;;;2.80;99.90;;;;;;5029958;28;20067;-85
2023/03/28 00:19:41;;;;;;;17.50;2.97;;;2.80;99.90;;;;;;5032175;28;20033;-86
2023/03/28 00:22:07;;;;;;;17.95;2.92;;;2.80;99.90;;;;;;5027692;28;20025;-84
2023/03/28 00:24:37;;;;;;;16.67;2.88;;;2.80;99.90;;;;;;5030594;28;20028;-83
2023/03/28 00:27:04;;;;;;;15.57;2.92;;;2.80;99.90;;;;;;5026679;28;20080;-83
2023/03/28 00:29:30;;;;;;;27.70;3.78;;;2.80;99.90;;;;;;5027306;28;20029;-83
2023/03/28 00:31:57;;;;;;;15.07;3.00;;;2.80;99.90;;;;;;5034564;28;20045;-83
2023/03/28 00:34:23;;;;;;;17.85;3.22;;;2.80;99.90;;;;;;5033071;28;20390;-79
2023/03/28 00:36:49;;;;;;;24.23;4.32;;;2.80;99.90;;;;;;5029790;28;20025;-83
2023/03/28 00:39:15;;;;;;;21.42;3.53;;;2.80;99.90;;;;;;5033672;28;20055;-83
2023/03/28 00:41:42;;;;;;;20.65;3.00;;;2.90;99.90;;;;;;5030998;28;21861;-83
2023/03/28 00:44:41;;;;;;;25.52;3.60;;;2.90;99.90;;;;;;5038280;28;20029;-82
2023/03/28 00:47:24;;;;;;;21.90;4.35;;;2.90;99.90;;;;;;5034043;28;20091;-82
2023/03/28 00:49:56;;;;;;;20.17;4.70;;;2.90;99.90;;;;;;5021919;28;20121;-83
2023/03/28 00:52:28;;;;;;;11.35;2.72;;;2.80;99.90;;;;;;5033647;28;20021;-83
2023/03/28 00:54:56;;;;;;;33.65;3.42;;;2.80;99.90;;;;;;5030437;28;20119;-85
2023/03/28 00:57:23;;;;;;;17.17;3.72;;;2.70;99.90;;;;;;5027138;28;20037;-82
2023/03/28 00:59:50;;;;;;;19.73;3.70;;;2.60;99.90;;;;;;5029193;28;20045;-83
2023/03/28 01:02:16;;;;;;;11.55;3.15;;;2.40;99.90;;;;;;5027168;28;20033;-82
2023/03/28 01:04:58;;;;;;;40.65;4.78;;;2.30;99.90;;;;;;5034371;28;20037;-82
2023/03/28 01:07:27;;;;;;;20.83;3.72;;;2.10;99.90;;;;;;5028876;28;20030;-83
2023/03/28 01:09:54;;;;;;;23.95;3.58;;;2.10;99.90;;;;;;5031537;28;20437;-82
2023/03/28 01:12:20;;;;;;;25.50;5.05;;;2.00;99.90;;;;;;5029890;28;20538;-84
2023/03/28 01:14:47;;;;;;;30.00;4.65;;;2.00;99.90;;;;;;5031966;28;20029;-82
2023/03/28 01:17:14;;;;;;;24.80;4.45;;;2.10;99.90;;;;;;5026523;28;20073;-82
2023/03/28 01:19:43;;;;;;;21.25;2.88;;;2.00;99.90;;;;;;5031628;28;20025;-82
2023/03/28 01:22:44;;;;;;;18.23;3.28;;;2.00;99.90;;;;;;5031513;28;20032;-82
2023/03/28 01:25:30;;;;;;;26.00;5.80;;;2.10;99.90;;;;;;5028289;28;20033;-84
2023/03/28 01:28:15;;;;;;;20.30;3.83;;;2.10;99.90;;;;;;5032679;28;20030;-81
2023/03/28 01:31:10;;;;;;;22.42;2.92;;;2.10;99.90;;;;;;5029533;28;20083;-83
2023/03/28 01:34:10;;;;;;;26.48;4.18;;;2.10;99.90;;;;;;5030104;28;20504;-84
2023/03/28 01:36:39;;;;;;;23.08;3.85;;;2.10;99.90;;;;;;5026340;28;20100;-81
2023/03/28 01:39:24;;;;;;;21.27;3.97;;;2.20;99.90;;;;;;5025300;28;20136;-83
2023/03/28 01:41:59;;;;;;;22.08;6.10;;;2.10;99.90;;;;;;5028455;28;20108;-82
2023/03/28 01:44:36;;;;;;;24.33;4.22;;;2.20;99.90;;;;;;5020654;28;20034;-83
2023/03/28 01:47:21;;;;;;;23.75;6.90;;;2.20;99.90;;;;;;5027948;28;20029;-82
2023/03/28 01:50:02;;;;;;;27.08;6.43;;;2.30;99.90;;;;;;5025296;28;20037;-81
2023/03/28 01:52:33;;;;;;;27.50;5.43;;;2.30;99.90;;;;;;5026760;28;20420;-84
2023/03/28 01:55:04;;;;;;;24.75;3.50;;;2.30;99.90;;;;;;5028511;28;20117;-82
2023/03/28 01:57:38;;;;;;;29.08;5.22;;;2.30;99.90;;;;;;5025544;28;20033;-82
2023/03/28 02:00:22;;;;;;;22.05;4.38;;;2.30;99.90;;;;;;5032279;28;20044;-83
2023/03/28 02:02:57;;;;;;;33.58;4.25;;;2.30;99.90;;;;;;5032566;28;20487;-83
2023/03/28 02:05:25;;;;;;;31.38;4.95;;;2.30;99.90;;;;;;5038282;28;20036;-84
2023/03/28 02:07:53;;;;;;;26.40;6.28;;;2.20;99.90;;;;;;5035242;28;20114;-83
2023/03/28 02:10:23;;;;;;;18.23;3.65;;;2.30;99.90;;;;;;5027306;28;20037;-83
2023/03/28 02:12:55;;;;;;;16.42;4.00;;;2.20;99.90;;;;;;5026576;28;20025;-83
2023/03/28 02:15:23;;;;;;;15.38;3.47;;;2.30;99.90;;;;;;5034405;28;20025;-82
2023/03/28 02:17:53;;;;;;;12.40;3.03;;;2.30;99.90;;;;;;5036768;28;20517;-84
2023/03/28 02:20:23;;;;;;;27.70;3.97;;;2.30;99.90;;;;;;5027537;28;20029;-83
2023/03/28 02:22:57;;;;;;;23.48;3.33;;;2.40;99.90;;;;;;5033768;28;20395;-80
2023/03/28 02:25:23;;;;;;;24.65;3.58;;;2.40;99.90;;;;;;5033209;28;20037;-84
2023/03/28 02:27:53;;;;;;;22.13;3.75;;;2.40;99.90;;;;;;5035552;28;20032;-84
2023/03/28 02:30:20;;;;;;;43.38;5.43;;;2.40;99.90;;;;;;5033786;28;20113;-82
2023/03/28 02:32:49;;;;;;;20.88;3.45;;;2.50;99.90;;;;;;5032701;28;20037;-83
2023/03/28 02:35:17;;;;;;;16.23;3.25;;;2.40;99.90;;;;;;5030937;28;20029;-83
2023/03/28 02:38:15;;;;;;;24.27;4.80;;;2.40;99.90;;;;;;5019410;28;20088;-83
2023/03/28 02:40:47;;;;;;;25.50;4.05;;;2.40;99.90;;;;;;5036648;28;20112;-84
2023/03/28 02:43:26;;;;;;;23.73;3.40;;;2.40;99.90;;;;;;5028314;28;20037;-82
2023/03/28 02:46:08;;;;;;;21.92;3.22;;;2.40;99.90;;;;;;5030982;28;20112;-84
2023/03/28 02:48:44;;;;;;;29.45;4.18;;;2.40;99.90;;;;;;5027525;28;20441;-84
2023/03/28 02:51:34;;;;;;;21.33;3.83;;;2.40;99.90;;;;;;5028760;28;20116;-83
2023/03/28 02:54:08;;;;;;;20.90;3.25;;;2.50;99.90;;;;;;5030699;28;20033;-83
2023/03/28 02:57:12;;;;;;;19.10;3.70;;;2.40;99.90;;;;;;5027440;28;20029;-81
2023/03/28 02:59:46;;;;;;;23.35;4.28;;;2.50;99.90;;;;;;5037965;28;20052;-81
2023/03/28 03:02:16;;;;;;;21.13;5.95;;;2.50;99.90;;;;;;5034847;28;20033;-80
2023/03/28 03:04:43;;;;;;;16.73;3.63;;;2.50;99.90;;;;;;5037422;28;20049;-82
2023/03/28 03:07:09;;;;;;;29.10;4.43;;;2.40;99.90;;;;;;5038853;28;20442;-79
2023/03/28 03:09:34;;;;;;;18.67;3.33;;;2.40;99.90;;;;;;5035222;28;20052;-80
2023/03/28 03:12:00;;;;;;;22.63;3.90;;;2.40;99.90;;;;;;5030646;28;20025;-82
2023/03/28 03:14:28;;;;;;;27.90;3.58;;;2.40;99.90;;;;;;5032248;28;20413;-83
2023/03/28 03:16:54;;;;;;;36.35;4.90;;;2.50;99.90;;;;;;5060404;28;20045;-81
2023/03/28 03:19:20;;;;;;;28.38;3.33;;;2.40;99.90;;;;;;5034125;28;20075;-82
2023/03/28 03:21:46;;;;;;;17.27;3.63;;;2.40;99.90;;;;;;5043590;28;20041;-84
2023/03/28 03:24:13;;;;;;;17.58;4.07;;;2.50;99.90;;;;;;5025440;28;20061;-83
2023/03/28 03:26:38;;;;;;;21.80;4.03;;;2.50;99.90;;;;;;5029732;28;20177;-81
2023/03/28 03:29:04;;;;;;;26.55;5.55;;;2.50;99.90;;;;;;5037093;28;20053;-81
2023/03/28 03:31:30;;;;;;;16.88;4.00;;;2.50;99.90;;;;;;5027524;28;20029;-82
2023/03/28 03:33:56;;;;;;;15.23;3.15;;;2.40;99.90;;;;;;5038686;28;20085;-82
2023/03/28 03:36:21;;;;;;;31.73;3.33;;;2.50;99.90;;;;;;5030489;28;20112;-83
2023/03/28 03:38:47;;;;;;;16.45;3.78;;;2.50;99.90;;;;;;5020461;28;20037;-83
2023/03/28 03:41:13;;;;;;;25.90;3.92;;;2.50;99.90;;;;;;5033098;28;20025;-82
2023/03/28 03:43:38;;;;;;;30.48;5.00;;;2.40;99.90;;;;;;5031149;28;20026;-81
2023/03/28 03:46:04;;;;;;;19.75;3.83;;;2.50;99.90;;;;;;5027436;28;20023;-80
2023/03/28 03:48:29;;;;;;;27.83;3.92;;;2.50;99.90;;;;;;5023937;28;20394;-81
2023/03/28 03:50:56;;;;;;;20.10;4.45;;;2.50;99.90;;;;;;5025140;28;20079;-82
2023/03/28 03:53:22;;;;;;;18.23;3.53;;;2.40;99.90;;;;;;5025561;28;20029;-81
2023/03/28 03:55:48;;;;;;;22.58;3.35;;;2.40;99.90;;;;;;5031916;28;20475;-82
2023/03/28 03:58:13;;;;;;;21.33;4.07;;;2.40;99.90;;;;;;5029688;28;20429;-80
2023/03/28 04:00:39;;;;;;;22.52;4.07;;;2.40;99.90;;;;;;5028658;28;20038;-82
2023/03/28 04:03:07;;;;;;;23.73;5.53;;;2.30;99.90;;;;;;5032472;28;20025;-81
2023/03/28 04:05:33;;;;;;;10.27;2.78;;;2.30;99.90;;;;;;5030176;28;20159;-79
2023/03/28 04:08:00;;;;;;;28.00;3.97;;;2.30;99.90;;;;;;5028850;28;20542;-82
2023/03/28 04:10:25;;;;;;;20.73;3.45;;;2.20;99.90;;;;;;5027056;28;20075;-83
2023/03/28 04:12:51;;;;;;;20.55;3.80;;;2.20;99.90;;;;;;5029469;28;20072;-82
2023/03/28 04:15:17;;;;;;;27.20;3.75;;;2.20;99.90;;;;;;5032066;28;20057;-84
2023/03/28 04:17:43;;;;;;;28.38;4.32;;;2.20;99.90;;;;;;5021349;28;20049;-81
2023/03/28 04:20:12;;;;;;;25.23;3.30;;;2.20;99.90;;;;;;5038621;28;20038;-81
2023/03/28 04:22:38;;;;;;;30.33;6.90;;;2.20;99.90;;;;;;5031419;28;20479;-82
2023/03/28 04:25:05;;;;;;;20.70;5.38;;;2.10;99.90;;;;;;5022011;28;20037;-80
2023/03/28 04:27:31;;;;;;;14.50;3.38;;;2.10;99.90;;;;;;5021286;28;20025;-83
2023/03/28 04:29:59;;;;;;;16.33;3.47;;;2.10;99.90;;;;;;5027636;28;20433;-81
2023/03/28 04:32:25;;;;;;;19.10;3.78;;;2.10;99.90;;;;;;5029523;28;20542;-80
2023/03/28 04:34:51;;;;;;;25.98;3.78;;;2.10;99.90;;;;;;5024772;28;20033;-82
2023/03/28 04:37:17;;;;;;;23.27;4.03;;;2.10;99.90;;;;;;5029809;28;20107;-82
2023/03/28 04:39:46;;;;;;;16.95;3.22;;;2.10;99.90;;;;;;5026074;28;20045;-82
2023/03/28 04:42:15;;;;;;;23.85;3.67;;;2.10;99.90;;;;;;5028917;28;20233;-82
2023/03/28 04:44:41;;;;;;;20.05;3.53;;;2.10;99.90;;;;;;5015508;28;20038;-81
2023/03/28 04:47:10;;;;;;;28.98;4.40;;;2.10;99.90;;;;;;5034150;28;20024;-82
2023/03/28 04:49:37;;;;;;;25.92;5.40;;;2.10;99.90;;;;;;5031328;28;20037;-81
2023/03/28 04:52:04;;;;;;;28.58;5.30;;;2.10;99.90;;;;;;5027740;28;20043;-82
2023/03/28 04:54:30;;;;;;;18.20;3.95;;;2.10;99.90;;;;;;5037018;28;20375;-83
2023/03/28 04:56:55;;;;;;;24.63;3.90;;;2.10;99.90;;;;;;5036897;28;20045;-81
2023/03/28 04:59:24;;;;;;;19.15;4.85;;;2.10;99.90;;;;;;5041808;28;20078;-84
2023/03/28 05:01:50;;;;;;;26.05;3.85;;;2.10;99.90;;;;;;5025130;28;20121;-83
2023/03/28 05:04:17;;;;;;;37.33;4.97;;;2.00;99.90;;;;;;5034961;28;20087;-82
2023/03/28 05:06:47;;;;;;;22.48;4.10;;;2.00;99.90;;;;;;5031647;28;20118;-81
2023/03/28 05:09:14;;;;;;;23.67;5.70;;;2.00;99.90;;;;;;5045112;28;20467;-82
2023/03/28 05:11:40;;;;;;;29.98;6.82;;;2.00;99.90;;;;;;5030581;28;20033;-82
2023/03/28 05:14:05;;;;;;;19.75;3.45;;;2.00;99.90;;;;;;5029138;28;20446;-82
2023/03/28 05:16:31;;;;;;;28.33;3.97;;;2.00;99.90;;;;;;5032832;28;20072;-83
2023/03/28 05:18:57;;;;;;;19.15;3.78;;;2.00;99.90;;;;;;5029838;28;20040;-83
2023/03/28 05:21:23;;;;;;;35.95;6.30;;;2.00;99.90;;;;;;5036924;28;20064;-83
2023/03/28 05:23:48;;;;;;;26.70;4.25;;;2.00;99.90;;;;;;5022699;28;20025;-83
2023/03/28 05:26:14;;;;;;;40.50;6.07;;;1.90;99.90;;;;;;5037259;28;20021;-83
2023/03/28 05:28:40;;;;;;;18.30;3.95;;;1.90;99.90;;;;;;5029648;28;20506;-82
2023/03/28 05:31:07;;;;;;;25.05;4.57;;;2.00;99.90;;;;;;5035896;28;20028;-82
2023/03/28 05:33:34;;;;;;;17.77;3.58;;;2.00;99.90;;;;;;5038534;28;20021;-82
2023/03/28 05:36:01;;;;;;;26.42;3.80;;;2.00;99.90;;;;;;5035249;28;20013;-83
2023/03/28 05:38:30;;;;;;;18.83;4.00;;;2.00;99.90;;;;;;5033890;28;20057;-82
2023/03/28 05:40:57;;;;;;;21.77;4.95;;;2.00;99.90;;;;;;5043011;28;20044;-82
2023/03/28 05:43:23;;;;;;;21.98;3.90;;;2.00;99.90;;;;;;5034068;28;20410;-81
2023/03/28 05:45:48;;;;;;;22.77;4.15;;;2.00;99.90;;;;;;5037123;28;20121;-82
2023/03/28 05:48:14;;;;;;;22.58;3.67;;;1.90;99.90;;;;;;5035849;28;20120;-80
2023/03/28 05:50:40;;;;;;;25.27;4.15;;;2.00;99.90;;;;;;5034567;28;20021;-83
2023/03/28 05:53:06;;;;;;;20.40;4.45;;;1.90;99.90;;;;;;5036709;28;20402;-83
2023/03/28 05:55:32;;;;;;;22.10;3.85;;;2.00;99.90;;;;;;5037417;28;20025;-83
2023/03/28 05:57:58;;;;;;;20.75;4.63;;;2.00;99.90;;;;;;5038805;28;20047;-85
2023/03/28 06:00:24;;;;;;;19.65;4.32;;;2.00;99.90;;;;;;5037543;28;20033;-82
2023/03/28 06:02:50;;;;;;;33.58;4.47;;;2.00;99.90;;;;;;5027655;28;20094;-82
2023/03/28 06:05:16;;;;;;;21.30;4.22;;;2.00;99.90;;;;;;5029867;28;20029;-81
2023/03/28 06:07:42;;;;;;;26.35;4.18;;;2.00;99.90;;;;;;5029004;28;20422;-82
2023/03/28 06:10:11;;;;;;;35.90;4.93;;;2.10;99.90;;;;;;5028854;28;20021;-83
2023/03/28 06:12:37;;;;;;;15.82;4.00;;;2.10;99.90;;;;;;5035432;28;20037;-82
2023/03/28 06:15:04;;;;;;;22.90;4.10;;;2.10;99.90;;;;;;5030663;28;20112;-82
2023/03/28 06:17:30;;;;;;;22.60;4.15;;;2.10;99.90;;;;;;5032956;28;20507;-82
2023/03/28 06:19:56;;;;;;;24.40;5.15;;;2.10;99.90;;;;;;5026845;28;20117;-83
2023/03/28 06:22:21;;;;;;;19.85;4.53;;;2.10;99.90;;;;;;5033345;28;20067;-82
2023/03/28 06:24:47;;;;;;;22.90;4.65;;;2.10;99.90;;;;;;5035910;28;20080;-83
2023/03/28 06:27:12;;;;;;;16.88;4.28;;;2.10;99.90;;;;;;5035865;28;20131;-84
2023/03/28 06:29:38;;;;;;;20.05;3.67;;;2.10;99.90;;;;;;5034449;28;20057;-82
2023/03/28 06:32:04;;;;;;;15.77;4.00;;;2.10;99.90;;;;;;5031812;28;20022;-82
2023/03/28 06:34:29;;;;;;;24.70;3.42;;;2.20;99.90;;;;;;5030557;28;20390;-83
2023/03/28 06:36:55;;;;;;;23.77;5.00;;;2.20;99.90;;;;;;5032225;28;20203;-82
2023/03/28 06:39:21;;;;;;;23.55;4.07;;;2.30;99.90;;;;;;5037276;28;20071;-83
2023/03/28 06:41:46;;;;;;;28.60;3.78;;;2.40;99.90;;;;;;5030562;28;20119;-82
2023/03/28 06:44:12;;;;;;;25.42;4.50;;;2.40;99.90;;;;;;5032335;28;20120;-82
2023/03/28 06:46:37;;;;;;;23.25;4.15;;;2.50;99.90;;;;;;5029298;28;20026;-82
2023/03/28 06:49:04;;;;;;;29.10;4.72;;;2.60;99.90;;;;;;5033943;28;20471;-83
2023/03/28 06:51:29;;;;;;;21.85;5.82;;;2.60;99.90;;;;;;5027548;28;20029;-82
2023/03/28 06:53:55;;;;;;;17.50;3.42;;;2.60;99.90;;;;;;5033158;28;20032;-84
2023/03/28 06:56:20;;;;;;;17.58;2.97;;;2.70;99.90;;;;;;5034663;28;20033;-82
2023/03/28 06:58:49;;;;;;;28.35;3.78;;;2.80;99.90;;;;;;5029686;28;20494;-84
2023/03/28 07:01:15;;;;;;;24.38;3.88;;;2.90;99.90;;;;;;5027628;28;20037;-82
2023/03/28 07:03:41;;;;;;;21.80;4.20;;;2.90;99.90;;;;;;5032575;28;20033;-82
2023/03/28 07:06:08;;;;;;;42.03;6.30;;;2.90;99.90;;;;;;5031827;28;20090;-84
2023/03/28 07:08:33;;;;;;;19.17;3.55;;;2.90;99.90;;;;;;5027075;28;20104;-83
2023/03/28 07:10:59;;;;;;;23.73;3.72;;;3.00;99.90;;;;;;5026849;28;20113;-83
2023/03/28 07:13:24;;;;;;;13.55;3.15;;;3.00;99.90;;;;;;5030069;28;20052;-84
2023/03/28 07:16:19;;;;;;;17.83;3.95;;;3.00;99.90;;;;;;5033114;28;20034;-82
2023/03/28 07:18:45;;;;;;;21.88;3.47;;;3.10;99.90;;;;;;5025123;28;20140;-82
2023/03/28 07:21:16;;;;;;;21.70;3.55;;;3.20;99.90;;;;;;5033157;28;20025;-81
2023/03/28 07:23:43;;;;;;;14.98;2.88;;;3.30;99.90;;;;;;5022424;28;20025;-83
2023/03/28 07:26:13;;;;;;;31.17;4.07;;;3.20;99.90;;;;;;5028093;28;20157;-82
2023/03/28 07:28:39;;;;;;;16.08;3.83;;;3.20;99.90;;;;;;5018105;28;20025;-82
2023/03/28 07:31:05;;;;;;;30.27;3.60;;;3.40;99.90;;;;;;5028449;28;20490;-82
2023/03/28 07:33:32;;;;;;;21.52;3.15;;;3.40;99.90;;;;;;5033614;28;20044;-83
2023/03/28 07:35:58;;;;;;;21.02;3.10;;;3.50;99.90;;;;;;5033263;28;20127;-82
2023/03/28 07:38:24;;;;;;;22.00;3.83;;;3.60;99.90;;;;;;5035655;28;20041;-82
2023/03/28 07:40:49;;;;;;;31.35;6.22;;;3.70;99.90;;;;;;5033619;28;20112;-81
2023/03/28 07:43:15;;;;;;;22.65;3.47;;;3.80;99.90;;;;;;5046198;28;20033;-82
2023/03/28 07:45:41;;;;;;;19.45;4.00;;;3.80;99.90;;;;;;5038079;28;20041;-82
2023/03/28 07:48:06;;;;;;;25.50;4.32;;;3.80;99.90;;;;;;5042297;28;20155;-82
2023/03/28 07:50:32;;;;;;;16.15;2.65;;;3.80;99.90;;;;;;5039833;28;20029;-84
2023/03/28 07:52:59;;;;;;;26.90;3.67;;;3.80;99.90;;;;;;5039593;28;20036;-83
2023/03/28 07:55:26;;;;;;;26.02;3.72;;;3.80;99.90;;;;;;5039149;28;20394;-82
2023/03/28 07:57:52;;;;;;;14.73;3.22;;;3.70;99.90;;;;;;5035667;28;20056;-81
2023/03/28 08:00:19;;;;;;;26.73;3.60;;;3.70;99.90;;;;;;5030398;28;20066;-82
2023/03/28 08:02:45;;;;;;;22.98;4.07;;;3.70;99.90;;;;;;5040122;28;20074;-80
2023/03/28 08:05:11;;;;;;;17.25;3.13;;;3.80;99.90;;;;;;5041125;28;20029;-81
2023/03/28 08:07:36;;;;;;;22.05;3.05;;;3.80;99.90;;;;;;5038088;28;20037;-82
2023/03/28 08:10:02;;;;;;;15.63;4.20;;;3.80;99.90;;;;;;5037027;28;20029;-83
2023/03/28 08:12:28;;;;;;;21.60;3.25;;;3.70;99.90;;;;;;5036421;28;20489;-82
2023/03/28 08:14:54;;;;;;;24.73;3.60;;;3.80;99.90;;;;;;5035184;28;20036;-81
2023/03/28 08:17:20;;;;;;;23.95;3.45;;;3.70;99.90;;;;;;5034813;28;20051;-80
2023/03/28 08:19:46;;;;;;;17.05;3.70;;;3.60;99.90;;;;;;5034270;28;20112;-85
2023/03/28 08:22:12;;;;;;;34.53;5.13;;;3.70;99.90;;;;;;5033337;28;20097;-81
2023/03/28 08:24:39;;;;;;;24.73;4.13;;;3.70;99.90;;;;;;5038943;28;20025;-82
2023/03/28 08:27:04;;;;;;;27.98;5.43;;;3.80;99.90;;;;;;5036016;28;20387;-81
2023/03/28 08:29:30;;;;;;;26.23;3.85;;;3.80;99.90;;;;;;5032741;28;20017;-82
2023/03/28 08:31:56;;;;;;;17.38;3.60;;;3.80;99.90;;;;;;5035272;28;20498;-81
2023/03/28 08:34:22;;;;;;;22.90;3.83;;;3.90;99.90;;;;;;5031479;28;20029;-81
2023/03/28 08:36:48;;;;;;;26.42;3.08;;;3.90;99.90;;;;;;5041685;28;20394;-83
2023/03/28 08:39:14;;;;;;;27.52;4.65;;;3.90;99.90;;;;;;5040403;28;20036;-81
2023/03/28 08:42:05;;;;;;;20.95;4.78;;;3.90;99.90;;;;;;5033608;28;20025;-83
2023/03/28 08:45:07;;;;;;;27.00;4.35;;;4.00;99.90;;;;;;5033525;28;20030;-81
2023/03/28 08:47:51;;;;;;;20.33;3.08;;;4.00;99.90;;;;;;5028676;28;20124;-82
2023/03/28 08:50:30;;;;;;;19.58;3.60;;;4.10;99.90;;;;;;5031970;28;20116;-82
2023/03/28 08:52:55;;;;;;;17.27;3.63;;;4.10;99.90;;;;;;5032925;28;20493;-83
2023/03/28 08:55:37;;;;;;;22.35;3.67;;;4.10;99.90;;;;;;5037435;28;20025;-82
2023/03/28 08:58:03;;;;;;;36.10;5.13;;;4.10;99.90;;;;;;5028115;28;20541;-84
2023/03/28 09:00:31;;;;;;;24.85;3.45;;;4.10;99.90;;;;;;5020609;28;20454;-81
2023/03/28 09:02:58;;;;;;;17.77;3.85;;;4.20;99.90;;;;;;5033127;28;20037;-82
2023/03/28 09:05:48;;;;;;;30.70;4.72;;;4.20;99.90;;;;;;5029250;28;20049;-80
2023/03/28 09:08:31;;;;;;;20.08;4.75;;;4.30;99.90;;;;;;5028044;28;20128;-81
2023/03/28 09:11:25;;;;;;;12.20;3.55;;;4.40;99.90;;;;;;5034587;28;20117;-81
2023/03/28 09:13:56;;;;;;;19.52;3.40;;;4.50;99.90;;;;;;5027805;28;20556;-82
2023/03/28 09:17:00;;;;;;;28.65;4.60;;;4.50;99.90;;;;;;5031372;28;20132;-81
2023/03/28 09:19:53;;;;;;;32.58;3.50;;;4.70;99.90;;;;;;5029041;28;20134;-82
2023/03/28 09:22:52;;;;;;;19.55;3.30;;;4.70;99.90;;;;;;5035835;28;20032;-82
2023/03/28 09:25:50;;;;;;;23.98;4.97;;;4.70;99.90;;;;;;5034432;28;20036;-82
2023/03/28 09:28:50;;;;;;;25.27;4.95;;;4.80;99.90;;;;;;5025543;28;20029;-83
2023/03/28 09:31:19;;;;;;;20.52;3.08;;;5.00;99.90;;;;;;5041691;28;20383;-83
2023/03/28 09:33:48;;;;;;;18.20;5.13;;;5.10;99.90;;;;;;5040624;28;20108;-83
2023/03/28 09:36:24;;;;;;;33.42;3.75;;;5.00;99.90;;;;;;5029876;28;20031;-80
2023/03/28 09:38:56;;;;;;;11.68;3.20;;;5.10;99.90;;;;;;5041210;28;20186;-81
2023/03/28 09:41:47;;;;;;;14.57;2.92;;;5.20;99.90;;;;;;5034399;28;20036;-81
2023/03/28 09:44:17;;;;;;;14.95;3.42;;;5.40;99.90;;;;;;5013990;28;20128;-80
2023/03/28 09:46:47;;;;;;;19.08;3.00;;;5.40;99.90;;;;;;5022486;28;20025;-84
2023/03/28 09:49:21;;;;;;;15.73;3.15;;;5.50;99.90;;;;;;5035336;28;20044;-82
2023/03/28 09:51:48;;;;;;;17.02;2.75;;;5.60;99.90;;;;;;5038637;28;20053;-82
2023/03/28 09:54:14;;;;;;;27.15;4.45;;;5.50;99.90;;;;;;5042775;28;20028;-81
2023/03/28 09:56:42;;;;;;;11.20;2.85;;;5.40;99.90;;;;;;5033405;28;20036;-82
2023/03/28 09:59:26;;;;;;;24.92;3.83;;;5.40;99.90;;;;;;5041010;28;20040;-83
2023/03/28 10:01:54;;;;;;;16.08;2.42;;;5.40;99.90;;;;;;5026590;28;20029;-81
2023/03/28 10:04:35;;;;;;;11.48;2.58;;;5.50;99.90;;;;;;5029004;28;20068;-82
2023/03/28 10:07:10;;;;;;;19.20;3.10;;;5.50;99.90;;;;;;5033169;28;20048;-84
2023/03/28 10:09:53;;;;;;;22.50;3.40;;;5.50;99.90;;;;;;5027326;28;20030;-80
2023/03/28 10:12:30;;;;;;;17.23;3.15;;;5.50;99.90;;;;;;5030095;28;20125;-82
2023/03/28 10:14:56;;;;;;;17.08;3.30;;;5.50;99.90;;;;;;5026476;28;20029;-81
2023/03/28 10:17:29;;;;;;;13.82;3.28;;;5.40;99.90;;;;;;5025303;28;20049;-81
2023/03/28 10:20:00;;;;;;;25.45;4.53;;;5.30;99.90;;;;;;5032671;28;20029;-83
2023/03/28 10:22:34;;;;;;;16.33;3.53;;;5.20;99.90;;;;;;5022207;28;20059;-82
2023/03/28 10:25:03;;;;;;;17.63;3.13;;;5.20;99.90;;;;;;5029523;28;20410;-84
2023/03/28 10:27:34;;;;;;;11.98;2.90;;;5.30;99.90;;;;;;5028890;28;20040;-82
2023/03/28 10:30:24;;;;;;;21.45;3.17;;;5.40;99.90;;;;;;5031690;28;20538;-82
2023/03/28 10:33:07;;;;;;;23.88;2.80;;;5.70;99.90;;;;;;5031303;28;20044;-81
2023/03/28 10:35:33;;;;;;;15.90;3.33;;;5.80;99.90;;;;;;5031251;28;20394;-81
2023/03/28 10:38:03;;;;;;;15.15;2.78;;;5.80;99.90;;;;;;5034797;28;20045;-83
2023/03/28 10:40:30;;;;;;;13.25;3.90;;;5.70;99.90;;;;;;5032539;28;20057;-81
2023/03/28 10:42:57;;;;;;;8.65;2.67;;;5.60;99.90;;;;;;5037445;28;20033;-81
2023/03/28 10:45:42;;;;;;;28.27;3.17;;;5.50;99.90;;;;;;5029184;28;20026;-81
2023/03/28 10:48:15;;;;;;;19.70;2.97;;;5.50;99.90;;;;;;5027974;28;20032;-84
2023/03/28 10:50:53;;;;;;;16.52;3.35;;;5.60;99.90;;;;;;5032381;28;20540;-81
2023/03/28 10:53:40;;;;;;;25.42;3.30;;;5.60;99.90;;;;;;5031047;28;20053;-80
2023/03/28 10:56:33;;;;;;;22.27;2.85;;;5.70;99.90;;;;;;5032549;28;20063;-83
2023/03/28 10:59:29;;;;;;;17.83;2.30;;;5.70;99.90;;;;;;5031074;28;20041;-82
2023/03/28 11:02:27;;;;;;;22.73;3.53;;;5.60;99.90;;;;;;5030516;28;20079;-81
2023/03/28 11:05:11;;;;;;;19.42;2.63;;;5.60;99.90;;;;;;5027448;28;20037;-81
2023/03/28 11:07:49;;;;;;;14.05;3.03;;;5.70;99.90;;;;;;5026667;28;20159;-80
2023/03/28 11:10:36;;;;;;;15.82;3.42;;;5.70;99.90;;;;;;5033166;28;20036;-83
2023/03/28 11:13:31;;;;;;;13.93;2.33;;;5.80;99.90;;;;;;5033685;28;20025;-83
2023/03/28 11:16:34;;;;;;;17.45;2.35;;;5.90;99.90;;;;;;5033654;28;20490;-80
2023/03/28 11:19:19;;;;;;;19.77;2.85;;;6.10;99.90;;;;;;5038504;28;20036;-80
2023/03/28 11:22:03;;;;;;;16.25;2.70;;;6.10;99.90;;;;;;5036008;28;20098;-82
2023/03/28 11:24:57;;;;;;;16.13;2.78;;;6.20;99.90;;;;;;5032337;28;20130;-81
2023/03/28 11:27:45;;;;;;;9.48;2.50;;;6.30;99.90;;;;;;5036365;28;20067;-80
2023/03/28 11:30:19;;;;;;;14.00;3.50;;;6.40;99.90;;;;;;5036207;28;20550;-80
2023/03/28 11:32:48;;;;;;;12.32;3.15;;;6.60;99.90;;;;;;5036530;28;20411;-83
2023/03/28 11:35:32;;;;;;;17.08;4.38;;;6.70;99.90;;;;;;5024016;28;20416;-80
2023/03/28 11:38:38;;;;;;;8.00;2.70;;;6.60;99.90;;;;;;5026923;28;20394;-80
2023/03/28 11:41:18;;;;;;;13.73;2.50;;;6.50;99.90;;;;;;5013047;28;20080;-80
2023/03/28 11:43:50;;;;;;;21.17;3.33;;;6.50;99.90;;;;;;5029300;28;20044;-82
2023/03/28 11:46:23;;;;;;;19.20;2.78;;;6.40;99.90;;;;;;5035471;28;20024;-81
2023/03/28 11:49:05;;;;;;;12.02;2.45;;;6.30;99.90;;;;;;5036539;28;20026;-82
2023/03/28 11:51:44;;;;;;;15.77;2.55;;;6.30;99.90;;;;;;5036109;28;20041;-81
2023/03/28 11:54:21;;;;;;;14.82;2.88;;;6.20;99.90;;;;;;5041405;28;20025;-80
2023/03/28 11:57:01;;;;;;;17.90;3.00;;;6.20;99.90;;;;;;5035480;28;20033;-81
2023/03/28 11:59:42;;;;;;;11.68;2.50;;;6.20;99.90;;;;;;5036397;28;20042;-83
2023/03/28 12:02:17;;;;;;;16.52;2.83;;;6.20;99.90;;;;;;5029141;28;20518;-81
2023/03/28 12:04:55;;;;;;;14.75;2.60;;;6.20;99.90;;;;;;5029468;28;20127;-84
2023/03/28 12:07:42;;;;;;;19.35;2.95;;;6.10;99.90;;;;;;5029187;28;20179;-81
2023/03/28 12:10:25;;;;;;;18.88;3.20;;;6.00;99.90;;;;;;5036163;28;20533;-82
2023/03/28 12:13:13;;;;;;;19.73;3.13;;;6.00;99.90;;;;;;5025504;28;20053;-80
2023/03/28 12:15:45;;;;;;;13.05;3.45;;;6.00;99.90;;;;;;5028382;28;20034;-81
2023/03/28 12:18:18;;;;;;;15.10;3.00;;;5.90;99.90;;;;;;5029814;28;20395;-82
2023/03/28 12:21:13;;;;;;;13.40;2.78;;;5.90;99.90;;;;;;5026171;28;20020;-82
2023/03/28 12:24:01;;;;;;;23.27;3.53;;;6.00;99.90;;;;;;5025217;28;20041;-82
2023/03/28 12:26:51;;;;;;;15.55;3.33;;;6.10;99.90;;;;;;5030619;28;20115;-83
2023/03/28 12:29:27;;;;;;;11.75;2.40;;;6.30;99.90;;;;;;5043380;28;20037;-83
2023/03/28 12:32:04;;;;;;;17.02;2.30;;;6.40;99.90;;;;;;5036757;28;20460;-82
2023/03/28 12:34:45;;;;;;;14.45;2.75;;;6.50;99.90;;;;;;5033623;28;20079;-83
2023/03/28 12:37:50;;;;;;;17.70;2.70;;;6.50;99.90;;;;;;5032535;28;20032;-81
2023/03/28 12:40:34;;;;;;;13.18;3.03;;;6.80;99.90;;;;;;5044541;28;20119;-84
2023/03/28 12:43:00;;;;;;;13.88;2.75;;;7.00;99.90;;;;;;5033126;28;20030;-82
2023/03/28 12:45:30;;;;;;;7.25;1.98;;;7.10;99.90;;;;;;5037111;28;20223;-82
2023/03/28 12:48:03;;;;;;;11.43;2.30;;;7.10;99.90;;;;;;5035667;28;20112;-85
2023/03/28 12:50:51;;;;;;;7.50;2.20;;;6.90;99.90;;;;;;5020347;28;20657;-82
2023/03/28 12:53:17;;;;;;;13.35;2.60;;;6.80;99.90;;;;;;5017873;28;20033;-84
2023/03/28 12:55:47;;;;;;;21.67;2.63;;;6.70;99.90;;;;;;5029613;28;20026;-83
2023/03/28 12:58:21;;;;;;;17.23;2.63;;;6.60;99.90;;;;;;5033439;28;20380;-83
2023/03/28 13:01:06;;;;;;;10.00;2.08;;;6.60;99.90;;;;;;5022337;28;20063;-81
2023/03/28 13:03:59;;;;;;;14.95;2.92;;;6.40;99.90;;;;;;5027270;28;20029;-83
2023/03/28 13:06:42;;;;;;;14.15;2.70;;;6.40;99.90;;;;;;5027138;28;20064;-82
2023/03/28 13:09:29;;;;;;;20.70;4.07;;;6.30;99.90;;;;;;5023972;28;20489;-83
2023/03/28 13:12:29;;;;;;;9.05;2.22;;;6.30;99.90;;;;;;5034814;28;20041;-82
2023/03/28 13:15:19;;;;;;;17.92;2.25;;;6.30;99.90;;;;;;5021958;28;20483;-82